sensor_id;sensor_type;location;lat;lon;timestamp;pressure;altitude;pressure_sealevel;temperature;humidity
36242;BME280;22283;42.748;12.732;2023-09-30T00:04:42;98631.84;;;13.37;100.00
36242;BME280;22283;42.748;12.732;2023-09-30T00:09:43;98626.91;;;13.33;100.00
36242;BME280;22283;42.748;12.732;2023-09-30T00:14:44;98621.75;;;13.18;100.00
36242;BME280;22283;42.748;12.732;2023-09-30T00:19:44;98622.66;;;13.06;100.00
36242;BME280;22283;42.748;12.732;2023-09-30T00:24:45;98625.31;;;12.95;100.00
36242;BME280;22283;42.748;12.732;2023-09-30T00:29:45;98620.78;;;12.84;100.00
36242;BME280;22283;42.748;12.732;2023-09-30T00:34:46;98620.53;;;12.76;100.00
36242;BME280;22283;42.748;12.732;2023-09-30T00:39:47;98616.69;;;12.80;100.00
36242;BME280;22283;42.748;12.732;2023-09-30T00:44:47;98601.59;;;12.80;100.00
36242;BME280;22283;42.748;12.732;2023-09-30T00:49:50;98623.44;;;12.84;100.00
36242;BME280;22283;42.748;12.732;2023-09-30T00:54:52;98633.84;;;12.87;100.00
36242;BME280;22283;42.748;12.732;2023-09-30T00:59:54;98632.09;;;12.75;100.00
36242;BME280;22283;42.748;12.732;2023-09-30T01:04:55;98632.88;;;12.64;100.00
36242;BME280;22283;42.748;12.732;2023-09-30T01:09:56;98616.97;;;12.64;100.00
36242;BME280;22283;42.748;12.732;2023-09-30T01:14:58;98613.41;;;12.52;100.00
36242;BME280;22283;42.748;12.732;2023-09-30T01:20:00;98608.94;;;12.53;100.00
36242;BME280;22283;42.748;12.732;2023-09-30T01:25:01;98602.31;;;12.59;100.00
36242;BME280;22283;42.748;12.732;2023-09-30T01:30:02;98597.06;;;12.46;100.00
36242;BME280;22283;42.748;12.732;2023-09-30T01:35:03;98580.75;;;12.39;100.00
36242;BME280;22283;42.748;12.732;2023-09-30T01:40:04;98590.97;;;12.33;100.00
36242;BME280;22283;42.748;12.732;2023-09-30T01:45:08;98584.41;;;12.25;100.00
36242;BME280;22283;42.748;12.732;2023-09-30T01:50:09;98587.75;;;12.16;100.00
36242;BME280;22283;42.748;12.732;2023-09-30T01:55:11;98592.94;;;12.18;100.00
36242;BME280;22283;42.748;12.732;2023-09-30T02:00:11;98600.59;;;12.10;100.00
36242;BME280;22283;42.748;12.732;2023-09-30T02:05:16;98604.00;;;12.12;100.00
36242;BME280;22283;42.748;12.732;2023-09-30T02:10:17;98609.53;;;12.09;100.00
36242;BME280;22283;42.748;12.732;2023-09-30T02:15:19;98606.97;;;12.07;100.00
36242;BME280;22283;42.748;12.732;2023-09-30T02:20:19;98621.81;;;12.10;100.00
36242;BME280;22283;42.748;12.732;2023-09-30T02:25:22;98629.91;;;12.08;100.00
36242;BME280;22283;42.748;12.732;2023-09-30T02:30:24;98638.28;;;12.02;100.00
36242;BME280;22283;42.748;12.732;2023-09-30T02:35:26;98625.97;;;11.75;100.00
36242;BME280;22283;42.748;12.732;2023-09-30T02:40:27;98658.22;;;11.69;100.00
36242;BME280;22283;42.748;12.732;2023-09-30T02:45:28;98667.00;;;11.57;100.00
36242;BME280;22283;42.748;12.732;2023-09-30T02:50:28;98653.22;;;11.52;100.00
36242;BME280;22283;42.748;12.732;2023-09-30T02:55:29;98636.38;;;11.53;100.00
36242;BME280;22283;42.748;12.732;2023-09-30T03:00:29;98627.56;;;11.65;100.00
36242;BME280;22283;42.748;12.732;2023-09-30T03:05:33;98632.03;;;11.77;100.00
36242;BME280;22283;42.748;12.732;2023-09-30T03:10:33;98616.78;;;11.68;100.00
36242;BME280;22283;42.748;12.732;2023-09-30T03:15:37;98618.22;;;11.60;100.00
36242;BME280;22283;42.748;12.732;2023-09-30T03:20:39;98616.66;;;11.44;100.00
36242;BME280;22283;42.748;12.732;2023-09-30T03:25:40;98616.31;;;11.36;100.00
36242;BME280;22283;42.748;12.732;2023-09-30T03:30:42;98616.13;;;11.26;100.00
36242;BME280;22283;42.748;12.732;2023-09-30T03:35:43;98635.16;;;11.06;100.00
36242;BME280;22283;42.748;12.732;2023-09-30T03:40:44;98635.56;;;11.00;100.00
36242;BME280;22283;42.748;12.732;2023-09-30T03:45:47;98629.53;;;11.11;100.00
36242;BME280;22283;42.748;12.732;2023-09-30T03:50:48;98635.50;;;11.14;100.00
36242;BME280;22283;42.748;12.732;2023-09-30T03:55:49;98642.28;;;11.18;100.00
36242;BME280;22283;42.748;12.732;2023-09-30T04:00:50;98648.72;;;11.14;100.00
36242;BME280;22283;42.748;12.732;2023-09-30T04:05:52;98646.41;;;11.10;100.00
36242;BME280;22283;42.748;12.732;2023-09-30T04:10:53;98649.13;;;11.08;100.00
36242;BME280;22283;42.748;12.732;2023-09-30T04:15:54;98651.44;;;11.00;100.00
36242;BME280;22283;42.748;12.732;2023-09-30T04:20:54;98649.75;;;10.99;100.00
36242;BME280;22283;42.748;12.732;2023-09-30T04:25:55;98653.50;;;11.09;100.00
36242;BME280;22283;42.748;12.732;2023-09-30T04:30:56;98646.78;;;11.03;100.00
36242;BME280;22283;42.748;12.732;2023-09-30T04:35:56;98652.50;;;10.97;100.00
36242;BME280;22283;42.748;12.732;2023-09-30T04:40:57;98641.06;;;10.97;100.00
36242;BME280;22283;42.748;12.732;2023-09-30T04:45:58;98627.06;;;10.95;100.00
36242;BME280;22283;42.748;12.732;2023-09-30T04:50:59;98634.69;;;10.87;100.00
36242;BME280;22283;42.748;12.732;2023-09-30T04:56:00;98622.59;;;10.82;100.00
36242;BME280;22283;42.748;12.732;2023-09-30T05:01:01;98625.28;;;10.95;100.00
36242;BME280;22283;42.748;12.732;2023-09-30T05:06:02;98620.81;;;10.96;100.00
36242;BME280;22283;42.748;12.732;2023-09-30T05:11:03;98625.59;;;10.91;100.00
36242;BME280;22283;42.748;12.732;2023-09-30T05:16:05;98623.47;;;10.96;100.00
36242;BME280;22283;42.748;12.732;2023-09-30T05:21:07;98636.44;;;11.13;100.00
36242;BME280;22283;42.748;12.732;2023-09-30T05:26:08;98626.72;;;11.26;100.00
36242;BME280;22283;42.748;12.732;2023-09-30T05:31:08;98614.53;;;11.49;100.00
36242;BME280;22283;42.748;12.732;2023-09-30T05:36:09;98622.06;;;11.68;100.00
36242;BME280;22283;42.748;12.732;2023-09-30T05:41:10;98616.13;;;11.77;100.00
36242;BME280;22283;42.748;12.732;2023-09-30T05:46:11;98619.13;;;12.22;100.00
36242;BME280;22283;42.748;12.732;2023-09-30T05:51:12;98622.06;;;12.67;100.00
36242;BME280;22283;42.748;12.732;2023-09-30T05:56:15;98617.63;;;13.14;100.00
36242;BME280;22283;42.748;12.732;2023-09-30T06:01:16;98622.56;;;13.54;100.00
36242;BME280;22283;42.748;12.732;2023-09-30T06:06:19;98626.25;;;13.98;100.00
36242;BME280;22283;42.748;12.732;2023-09-30T06:11:21;98633.72;;;14.15;100.00
36242;BME280;22283;42.748;12.732;2023-09-30T06:16:25;98632.94;;;14.47;100.00
36242;BME280;22283;42.748;12.732;2023-09-30T06:21:26;98652.59;;;14.57;100.00
36242;BME280;22283;42.748;12.732;2023-09-30T06:26:29;98656.13;;;14.90;100.00
36242;BME280;22283;42.748;12.732;2023-09-30T06:31:30;98648.81;;;15.24;99.70
36242;BME280;22283;42.748;12.732;2023-09-30T06:36:30;98651.72;;;15.84;93.93
36242;BME280;22283;42.748;12.732;2023-09-30T06:41:32;98661.50;;;16.35;92.08
36242;BME280;22283;42.748;12.732;2023-09-30T06:46:35;98663.47;;;16.33;94.54
36242;BME280;22283;42.748;12.732;2023-09-30T06:51:35;98673.38;;;16.52;94.59
36242;BME280;22283;42.748;12.732;2023-09-30T06:56:36;98686.31;;;16.56;91.50
36242;BME280;22283;42.748;12.732;2023-09-30T07:01:36;98689.16;;;16.64;91.30
36242;BME280;22283;42.748;12.732;2023-09-30T07:06:37;98699.81;;;16.55;90.40
36242;BME280;22283;42.748;12.732;2023-09-30T07:11:38;98695.72;;;16.51;91.68
36242;BME280;22283;42.748;12.732;2023-09-30T07:16:39;98701.38;;;16.57;90.34
36242;BME280;22283;42.748;12.732;2023-09-30T07:21:40;98709.78;;;16.53;92.11
36242;BME280;22283;42.748;12.732;2023-09-30T07:26:41;98720.41;;;16.43;92.28
36242;BME280;22283;42.748;12.732;2023-09-30T07:31:42;98734.75;;;16.42;92.73
36242;BME280;22283;42.748;12.732;2023-09-30T07:36:42;98737.75;;;16.48;92.27
36242;BME280;22283;42.748;12.732;2023-09-30T07:41:43;98750.38;;;16.46;91.45
36242;BME280;22283;42.748;12.732;2023-09-30T07:46:44;98744.34;;;16.75;91.93
36242;BME280;22283;42.748;12.732;2023-09-30T07:51:45;98749.97;;;16.82;89.06
36242;BME280;22283;42.748;12.732;2023-09-30T07:56:46;98749.34;;;16.99;88.75
36242;BME280;22283;42.748;12.732;2023-09-30T08:01:47;98733.03;;;17.12;86.35
36242;BME280;22283;42.748;12.732;2023-09-30T08:06:49;98738.13;;;17.34;86.24
36242;BME280;22283;42.748;12.732;2023-09-30T08:11:50;98731.06;;;17.72;84.11
36242;BME280;22283;42.748;12.732;2023-09-30T08:16:54;98722.59;;;18.06;82.36
36242;BME280;22283;42.748;12.732;2023-09-30T08:21:54;98726.16;;;18.34;79.77
36242;BME280;22283;42.748;12.732;2023-09-30T08:26:55;98722.41;;;18.54;77.42
36242;BME280;22283;42.748;12.732;2023-09-30T08:31:56;98719.38;;;18.67;75.95
36242;BME280;22283;42.748;12.732;2023-09-30T08:36:57;98726.88;;;18.91;72.03
36242;BME280;22283;42.748;12.732;2023-09-30T08:42:01;98718.53;;;18.94;71.81
36242;BME280;22283;42.748;12.732;2023-09-30T08:47:03;98716.41;;;19.15;71.11
36242;BME280;22283;42.748;12.732;2023-09-30T08:52:05;98717.50;;;19.40;69.99
36242;BME280;22283;42.748;12.732;2023-09-30T08:57:09;98708.75;;;19.74;69.95
36242;BME280;22283;42.748;12.732;2023-09-30T09:02:10;98700.47;;;20.11;67.58
36242;BME280;22283;42.748;12.732;2023-09-30T09:07:11;98701.47;;;20.19;67.37
36242;BME280;22283;42.748;12.732;2023-09-30T09:12:20;98690.81;;;20.35;63.97
36242;BME280;22283;42.748;12.732;2023-09-30T09:17:21;98685.09;;;20.56;63.16
36242;BME280;22283;42.748;12.732;2023-09-30T09:22:23;98678.59;;;20.75;63.08
36242;BME280;22283;42.748;12.732;2023-09-30T09:27:23;98671.03;;;20.86;64.50
36242;BME280;22283;42.748;12.732;2023-09-30T09:32:24;98663.16;;;20.93;63.89
36242;BME280;22283;42.748;12.732;2023-09-30T09:37:25;98665.88;;;21.18;63.74
36242;BME280;22283;42.748;12.732;2023-09-30T09:47:26;98671.66;;;21.47;60.29
36242;BME280;22283;42.748;12.732;2023-09-30T09:52:28;98669.63;;;21.66;58.89
36242;BME280;22283;42.748;12.732;2023-09-30T09:57:30;98668.78;;;21.81;58.14
36242;BME280;22283;42.748;12.732;2023-09-30T10:02:32;98681.38;;;21.89;56.58
36242;BME280;22283;42.748;12.732;2023-09-30T10:07:36;98680.88;;;22.02;57.00
36242;BME280;22283;42.748;12.732;2023-09-30T10:12:38;98693.50;;;22.09;55.83
36242;BME280;22283;42.748;12.732;2023-09-30T10:18:02;98694.16;;;22.20;54.62
36242;BME280;22283;42.748;12.732;2023-09-30T10:23:25;98690.06;;;22.40;55.58
36242;BME280;22283;42.748;12.732;2023-09-30T10:28:36;98695.03;;;22.59;53.88
36242;BME280;22283;42.748;12.732;2023-09-30T10:39:01;98683.63;;;22.89;52.18
36242;BME280;22283;42.748;12.732;2023-09-30T10:49:30;98678.50;;;23.02;52.22
36242;BME280;22283;42.748;12.732;2023-09-30T10:54:34;98682.81;;;23.11;49.00
36242;BME280;22283;42.748;12.732;2023-09-30T10:59:35;98688.28;;;23.26;50.63
36242;BME280;22283;42.748;12.732;2023-09-30T11:04:47;98670.72;;;23.30;49.30
36242;BME280;22283;42.748;12.732;2023-09-30T11:09:48;98658.47;;;23.42;49.84
36242;BME280;22283;42.748;12.732;2023-09-30T11:14:59;98652.84;;;23.52;48.59
36242;BME280;22283;42.748;12.732;2023-09-30T11:19:59;98643.94;;;23.66;48.23
36242;BME280;22283;42.748;12.732;2023-09-30T11:25:00;98636.81;;;23.88;48.37
36242;BME280;22283;42.748;12.732;2023-09-30T11:30:02;98626.56;;;23.98;46.14
36242;BME280;22283;42.748;12.732;2023-09-30T11:35:03;98618.53;;;23.90;47.38
36242;BME280;22283;42.748;12.732;2023-09-30T11:40:13;98626.28;;;23.93;48.31
36242;BME280;22283;42.748;12.732;2023-09-30T11:45:21;98606.81;;;24.13;47.56
36242;BME280;22283;42.748;12.732;2023-09-30T11:50:24;98595.41;;;24.32;47.13
36242;BME280;22283;42.748;12.732;2023-09-30T11:55:25;98588.91;;;24.41;47.32
36242;BME280;22283;42.748;12.732;2023-09-30T12:00:27;98584.75;;;24.60;46.53
36242;BME280;22283;42.748;12.732;2023-09-30T12:05:29;98583.75;;;24.83;45.31
36242;BME280;22283;42.748;12.732;2023-09-30T12:10:31;98578.66;;;24.94;44.47
36242;BME280;22283;42.748;12.732;2023-09-30T12:15:31;98572.09;;;25.03;44.61
36242;BME280;22283;42.748;12.732;2023-09-30T12:20:32;98575.16;;;25.15;44.04
36242;BME280;22283;42.748;12.732;2023-09-30T12:25:33;98574.44;;;25.28;43.33
36242;BME280;22283;42.748;12.732;2023-09-30T12:30:34;98573.75;;;25.47;42.98
36242;BME280;22283;42.748;12.732;2023-09-30T12:35:35;98567.53;;;25.54;42.52
36242;BME280;22283;42.748;12.732;2023-09-30T12:40:35;98560.94;;;25.63;42.60
36242;BME280;22283;42.748;12.732;2023-09-30T12:45:36;98552.16;;;25.61;41.98
36242;BME280;22283;42.748;12.732;2023-09-30T12:50:39;98559.09;;;25.42;42.16
36242;BME280;22283;42.748;12.732;2023-09-30T12:55:39;98568.13;;;25.21;40.77
36242;BME280;22283;42.748;12.732;2023-09-30T13:00:40;98563.34;;;25.23;41.63
36242;BME280;22283;42.748;12.732;2023-09-30T13:05:41;98550.13;;;25.35;41.00
36242;BME280;22283;42.748;12.732;2023-09-30T13:10:41;98545.63;;;25.48;41.30
36242;BME280;22283;42.748;12.732;2023-09-30T13:15:42;98545.44;;;25.50;41.33
36242;BME280;22283;42.748;12.732;2023-09-30T13:20:43;98541.72;;;25.58;38.95
36242;BME280;22283;42.748;12.732;2023-09-30T13:25:44;98536.16;;;25.66;37.32
36242;BME280;22283;42.748;12.732;2023-09-30T13:30:44;98548.00;;;25.58;36.91
36242;BME280;22283;42.748;12.732;2023-09-30T13:35:46;98552.56;;;25.58;36.11
36242;BME280;22283;42.748;12.732;2023-09-30T13:40:47;98533.59;;;25.58;36.09
36242;BME280;22283;42.748;12.732;2023-09-30T13:45:47;98516.00;;;25.75;36.07
36242;BME280;22283;42.748;12.732;2023-09-30T13:50:49;98517.88;;;25.74;35.39
36242;BME280;22283;42.748;12.732;2023-09-30T13:55:49;98514.50;;;25.66;35.74
36242;BME280;22283;42.748;12.732;2023-09-30T14:00:50;98498.25;;;25.66;36.34
36242;BME280;22283;42.748;12.732;2023-09-30T14:05:54;98505.56;;;25.72;37.08
36242;BME280;22283;42.748;12.732;2023-09-30T14:10:56;98491.38;;;25.70;35.20
36242;BME280;22283;42.748;12.732;2023-09-30T14:15:56;98493.44;;;25.68;35.80
36242;BME280;22283;42.748;12.732;2023-09-30T14:20:57;98486.09;;;25.62;35.92
36242;BME280;22283;42.748;12.732;2023-09-30T14:25:57;98483.81;;;25.65;35.60
36242;BME280;22283;42.748;12.732;2023-09-30T14:31:03;98486.34;;;25.67;36.12
36242;BME280;22283;42.748;12.732;2023-09-30T14:36:04;98482.97;;;25.58;37.03
36242;BME280;22283;42.748;12.732;2023-09-30T14:41:07;98485.47;;;25.60;36.02
36242;BME280;22283;42.748;12.732;2023-09-30T14:46:09;98486.69;;;25.50;35.82
36242;BME280;22283;42.748;12.732;2023-09-30T14:51:09;98499.97;;;25.45;35.58
36242;BME280;22283;42.748;12.732;2023-09-30T14:56:17;98499.09;;;25.38;36.13
36242;BME280;22283;42.748;12.732;2023-09-30T15:01:18;98506.56;;;25.36;36.21
36242;BME280;22283;42.748;12.732;2023-09-30T15:06:20;98504.41;;;25.25;36.75
36242;BME280;22283;42.748;12.732;2023-09-30T15:11:24;98507.72;;;25.20;36.98
36242;BME280;22283;42.748;12.732;2023-09-30T15:16:25;98497.03;;;25.12;36.62
36242;BME280;22283;42.748;12.732;2023-09-30T15:21:26;98492.81;;;25.10;36.84
36242;BME280;22283;42.748;12.732;2023-09-30T15:26:27;98482.09;;;25.01;36.56
36242;BME280;22283;42.748;12.732;2023-09-30T15:31:28;98482.06;;;24.95;36.88
36242;BME280;22283;42.748;12.732;2023-09-30T15:36:30;98480.78;;;24.69;40.14
36242;BME280;22283;42.748;12.732;2023-09-30T15:41:32;98487.25;;;24.32;42.83
36242;BME280;22283;42.748;12.732;2023-09-30T15:46:32;98489.19;;;23.87;44.89
36242;BME280;22283;42.748;12.732;2023-09-30T15:51:33;98496.00;;;23.53;46.34
36242;BME280;22283;42.748;12.732;2023-09-30T15:56:34;98502.75;;;23.20;48.31
36242;BME280;22283;42.748;12.732;2023-09-30T16:01:34;98495.13;;;22.86;49.61
36242;BME280;22283;42.748;12.732;2023-09-30T16:06:35;98492.97;;;22.58;50.49
36242;BME280;22283;42.748;12.732;2023-09-30T16:11:36;98490.91;;;22.37;51.59
36242;BME280;22283;42.748;12.732;2023-09-30T16:16:36;98484.31;;;22.08;53.06
36242;BME280;22283;42.748;12.732;2023-09-30T16:21:37;98489.13;;;21.90;53.80
36242;BME280;22283;42.748;12.732;2023-09-30T16:26:37;98499.31;;;21.72;54.77
36242;BME280;22283;42.748;12.732;2023-09-30T16:31:38;98499.88;;;21.51;55.29
36242;BME280;22283;42.748;12.732;2023-09-30T16:36:39;98502.09;;;21.39;55.01
36242;BME280;22283;42.748;12.732;2023-09-30T16:41:40;98514.22;;;21.27;55.68
36242;BME280;22283;42.748;12.732;2023-09-30T16:46:40;98503.13;;;20.81;57.60
36242;BME280;22283;42.748;12.732;2023-09-30T16:51:41;98507.81;;;20.54;57.36
36242;BME280;22283;42.748;12.732;2023-09-30T16:56:42;98524.88;;;20.29;59.42
36242;BME280;22283;42.748;12.732;2023-09-30T17:01:42;98524.28;;;20.01;60.83
36242;BME280;22283;42.748;12.732;2023-09-30T17:06:43;98505.66;;;19.99;60.71
36242;BME280;22283;42.748;12.732;2023-09-30T17:11:44;98518.59;;;19.96;60.44
36242;BME280;22283;42.748;12.732;2023-09-30T17:16:45;98527.75;;;19.85;61.08
36242;BME280;22283;42.748;12.732;2023-09-30T17:21:45;98532.69;;;19.63;62.00
36242;BME280;22283;42.748;12.732;2023-09-30T17:26:46;98523.44;;;19.40;62.54
36242;BME280;22283;42.748;12.732;2023-09-30T17:31:47;98535.25;;;19.21;63.60
36242;BME280;22283;42.748;12.732;2023-09-30T17:36:47;98537.03;;;19.12;63.66
36242;BME280;22283;42.748;12.732;2023-09-30T17:41:49;98535.63;;;19.08;62.86
36242;BME280;22283;42.748;12.732;2023-09-30T17:46:50;98534.59;;;19.01;62.62
36242;BME280;22283;42.748;12.732;2023-09-30T17:51:50;98550.69;;;18.65;64.26
36242;BME280;22283;42.748;12.732;2023-09-30T17:56:51;98550.81;;;18.46;65.04
36242;BME280;22283;42.748;12.732;2023-09-30T18:01:52;98549.91;;;18.37;65.02
36242;BME280;22283;42.748;12.732;2023-09-30T18:06:52;98556.34;;;18.17;65.52
36242;BME280;22283;42.748;12.732;2023-09-30T18:11:53;98560.09;;;18.06;65.50
36242;BME280;22283;42.748;12.732;2023-09-30T18:16:54;98562.91;;;18.05;65.15
36242;BME280;22283;42.748;12.732;2023-09-30T18:21:55;98563.53;;;17.89;65.85
36242;BME280;22283;42.748;12.732;2023-09-30T18:26:55;98566.13;;;17.71;66.43
36242;BME280;22283;42.748;12.732;2023-09-30T18:31:56;98577.56;;;17.63;66.29
36242;BME280;22283;42.748;12.732;2023-09-30T18:36:58;98578.56;;;17.53;66.59
36242;BME280;22283;42.748;12.732;2023-09-30T18:41:58;98580.56;;;17.41;66.83
36242;BME280;22283;42.748;12.732;2023-09-30T18:46:59;98577.50;;;17.36;66.38
36242;BME280;22283;42.748;12.732;2023-09-30T18:52:00;98593.00;;;17.23;67.47
36242;BME280;22283;42.748;12.732;2023-09-30T18:57:00;98602.31;;;17.18;67.01
36242;BME280;22283;42.748;12.732;2023-09-30T19:02:01;98608.38;;;17.11;67.16
36242;BME280;22283;42.748;12.732;2023-09-30T19:07:04;98616.94;;;16.95;68.33
36242;BME280;22283;42.748;12.732;2023-09-30T19:12:05;98626.78;;;16.85;68.50
36242;BME280;22283;42.748;12.732;2023-09-30T19:17:06;98625.91;;;16.75;68.92
36242;BME280;22283;42.748;12.732;2023-09-30T19:22:07;98624.38;;;16.82;68.13
36242;BME280;22283;42.748;12.732;2023-09-30T19:27:07;98624.53;;;16.80;67.80
36242;BME280;22283;42.748;12.732;2023-09-30T19:32:08;98632.66;;;16.79;68.11
36242;BME280;22283;42.748;12.732;2023-09-30T19:37:09;98637.13;;;16.68;68.03
36242;BME280;22283;42.748;12.732;2023-09-30T19:42:10;98641.72;;;16.47;69.91
36242;BME280;22283;42.748;12.732;2023-09-30T19:47:11;98636.19;;;16.19;71.40
36242;BME280;22283;42.748;12.732;2023-09-30T19:52:11;98639.03;;;15.97;72.84
36242;BME280;22283;42.748;12.732;2023-09-30T19:57:12;98644.59;;;15.84;73.60
36242;BME280;22283;42.748;12.732;2023-09-30T20:02:13;98646.38;;;15.74;74.45
36242;BME280;22283;42.748;12.732;2023-09-30T20:07:16;98643.03;;;15.61;75.45
36242;BME280;22283;42.748;12.732;2023-09-30T20:12:17;98647.84;;;15.46;76.16
36242;BME280;22283;42.748;12.732;2023-09-30T20:17:18;98655.13;;;15.44;76.89
36242;BME280;22283;42.748;12.732;2023-09-30T20:22:18;98649.97;;;15.31;77.66
36242;BME280;22283;42.748;12.732;2023-09-30T20:27:19;98661.69;;;15.40;77.08
36242;BME280;22283;42.748;12.732;2023-09-30T20:32:20;98654.47;;;15.31;77.60
36242;BME280;22283;42.748;12.732;2023-09-30T20:37:20;98651.09;;;15.29;77.38
36242;BME280;22283;42.748;12.732;2023-09-30T20:42:21;98650.50;;;15.25;77.38
36242;BME280;22283;42.748;12.732;2023-09-30T20:47:22;98657.44;;;15.16;77.61
36242;BME280;22283;42.748;12.732;2023-09-30T20:52:23;98650.59;;;15.03;78.51
36242;BME280;22283;42.748;12.732;2023-09-30T20:57:24;98659.00;;;14.98;78.45
36242;BME280;22283;42.748;12.732;2023-09-30T21:02:24;98656.22;;;14.88;79.20
36242;BME280;22283;42.748;12.732;2023-09-30T21:07:25;98668.03;;;14.74;80.75
36242;BME280;22283;42.748;12.732;2023-09-30T21:12:26;98675.19;;;14.63;81.89
36242;BME280;22283;42.748;12.732;2023-09-30T21:17:27;98658.63;;;14.59;82.43
36242;BME280;22283;42.748;12.732;2023-09-30T21:22:29;98662.50;;;14.55;82.50
36242;BME280;22283;42.748;12.732;2023-09-30T21:27:29;98657.66;;;14.49;83.13
36242;BME280;22283;42.748;12.732;2023-09-30T21:32:30;98658.38;;;14.40;83.61
36242;BME280;22283;42.748;12.732;2023-09-30T21:37:32;98652.69;;;14.56;82.39
36242;BME280;22283;42.748;12.732;2023-09-30T21:42:34;98654.69;;;14.74;80.97
36242;BME280;22283;42.748;12.732;2023-09-30T21:47:35;98654.25;;;14.69;81.20
36242;BME280;22283;42.748;12.732;2023-09-30T21:52:35;98652.31;;;14.49;82.11
36242;BME280;22283;42.748;12.732;2023-09-30T21:57:36;98653.28;;;14.37;82.36
36242;BME280;22283;42.748;12.732;2023-09-30T22:02:37;98661.19;;;14.27;83.15
36242;BME280;22283;42.748;12.732;2023-09-30T22:07:39;98669.03;;;14.17;84.59
36242;BME280;22283;42.748;12.732;2023-09-30T22:12:40;98669.06;;;14.06;85.23
36242;BME280;22283;42.748;12.732;2023-09-30T22:17:40;98667.34;;;14.05;85.32
36242;BME280;22283;42.748;12.732;2023-09-30T22:22:41;98675.31;;;14.16;83.76
36242;BME280;22283;42.748;12.732;2023-09-30T22:27:42;98672.44;;;14.19;83.63
36242;BME280;22283;42.748;12.732;2023-09-30T22:32:43;98681.25;;;14.20;84.05
36242;BME280;22283;42.748;12.732;2023-09-30T22:37:44;98682.84;;;14.22;83.63
36242;BME280;22283;42.748;12.732;2023-09-30T22:42:45;98692.16;;;14.06;84.55
36242;BME280;22283;42.748;12.732;2023-09-30T22:47:50;98697.56;;;13.93;85.28
36242;BME280;22283;42.748;12.732;2023-09-30T22:52:51;98711.84;;;13.92;84.42
36242;BME280;22283;42.748;12.732;2023-09-30T22:57:52;98708.47;;;13.90;84.35
36242;BME280;22283;42.748;12.732;2023-09-30T23:02:56;98708.09;;;13.94;83.94
36242;BME280;22283;42.748;12.732;2023-09-30T23:07:57;98716.16;;;13.82;84.84
36242;BME280;22283;42.748;12.732;2023-09-30T23:12:58;98712.91;;;13.67;86.74
36242;BME280;22283;42.748;12.732;2023-09-30T23:17:59;98718.28;;;13.54;87.80
36242;BME280;22283;42.748;12.732;2023-09-30T23:23:00;98717.06;;;13.47;88.63
36242;BME280;22283;42.748;12.732;2023-09-30T23:28:01;98727.53;;;13.37;88.56
36242;BME280;22283;42.748;12.732;2023-09-30T23:33:01;98734.09;;;13.44;88.93
36242;BME280;22283;42.748;12.732;2023-09-30T23:38:03;98731.56;;;13.43;88.95
36242;BME280;22283;42.748;12.732;2023-09-30T23:43:05;98734.78;;;13.35;89.68
36242;BME280;22283;42.748;12.732;2023-09-30T23:48:06;98727.53;;;13.37;90.06
36242;BME280;22283;42.748;12.732;2023-09-30T23:53:08;98728.38;;;13.38;89.64
36242;BME280;22283;42.748;12.732;2023-09-30T23:58:09;98714.16;;;13.39;89.99
